• Join FlightAware (Why Join?)
  • Login
  • US Flag 
03:31PM EDT


 

Airport Tracker/Info


-or-


 

Live Flight TrackerFlight Track Log ✈ EJA930 ✈ 26-Jun-2013 ✈ KCRW - KCMH

Flight Track Log - Related Links

Times and Time Zones

All times are in EDT time to prevent confusion due to time zone crossing. See the EJA930 flight status page for this flight to view local times or setup timezone preferences in your user account.

Time Position Orientation Groundspeed Altitude Reporting Facility
EDT Latitude Longitude Course Direction KTS MPH feet Rate Location/Type
03:41PM 38.3631 -81.6394 322° Northwest 198 228 3,300  Level Indianapolis Center
03:42PM 38.4128 -81.6967 318° Northwest 249 287 7,600 3,780 Climbing Indianapolis Center
03:43PM 38.4789 -81.7592 324° Northwest 287 330 11,200 2,100 Climbing Indianapolis Center
03:45PM 38.5731 -81.8222 332° Northwest 379 436 12,000 360 Climbing Indianapolis Center
03:46PM 38.6797 -81.8767 338° Northwest 405 466 12,000  Level Indianapolis Center
03:47PM 38.7245 -81.9911 322° Northwest  Level FlightAware Approximate
03:47PM 38.7853 -81.9317 338° Northwest 405 466 12,000  Level Indianapolis Center
03:48PM 38.8908 -81.9878 338° Northwest 406 467 12,000  Level Indianapolis Center
03:49PM 38.9950 -82.0425 338° Northwest 404 465 12,000  Level Indianapolis Center
03:50PM 39.1006 -82.0989 337° Northwest 408 470 12,000  Level Indianapolis Center
03:51PM 39.2275 -82.1656 338° Northwest 409 471 12,000  Level Indianapolis Center
03:52PM 39.3319 -82.2211 338° Northwest 407 468 12,000  Level Indianapolis Center
03:53PM 39.4444 -82.2817 337° Northwest 408 470 12,000 -480 Level Indianapolis Center
03:54PM 39.5511 -82.3383 338° Northwest 410 472 11,100 -900 Descending Indianapolis Center
03:55PM 39.6200 -82.3906 330° Northwest 397 457 10,500 -780 Descending Indianapolis Center
03:55PM 39.6989 -82.4342 337° Northwest 393 452 10,000 -420 Descending Indianapolis Center
03:56PM 39.7458 -82.4556 341° North 374 430 10,000 -840 Level Indianapolis Center
03:57PM 39.8211 -82.4933 339° North 294 338 8,700 -1,680 Descending Indianapolis Center
03:58PM 39.8772 -82.5239 337° Northwest 273 314 7,200 -2,040 Descending Indianapolis Center
03:59PM 39.9433 -82.5717 331° Northwest 273 314 5,300 -1,980 Descending Indianapolis Center
04:00PM 39.9811 -82.6656 298° West 265 305 3,100 -1,380 Descending Indianapolis Center
04:00PM 39.9839 -82.7203 274° West 251 289 3,000 -600 Descending Indianapolis Center
04:01PM 39.9886 -82.7683 277° West 238 274 2,300 -900 Descending Indianapolis Center
04:02PM 39.9906 -82.8244 273° West 183 211 1,500 -600 Descending Indianapolis Center
04:03PM 39.9928 -82.8683 274° West 153 176 1,100 -420 Descending Indianapolis Center
04:05PM 39.9833 -82.8833 282° West  Level FlightAware Approximate